sensor_id;sensor_type;location;lat;lon;timestamp;pressure;altitude;pressure_sealevel;temperature;humidity
21273;BME280;36726;52.328;10.552;2023-04-08T00:01:38;101204.91;;;7.38;95.29
21273;BME280;36726;52.328;10.552;2023-04-08T00:04:05;101197.03;;;7.38;95.69
21273;BME280;36726;52.328;10.552;2023-04-08T00:06:31;101204.09;;;7.40;96.58
21273;BME280;36726;52.328;10.552;2023-04-08T00:08:58;101203.28;;;7.42;96.56
21273;BME280;36726;52.328;10.552;2023-04-08T00:11:24;101201.56;;;7.43;96.42
21273;BME280;36726;52.328;10.552;2023-04-08T00:13:51;101198.09;;;7.44;96.17
21273;BME280;36726;52.328;10.552;2023-04-08T00:16:17;101202.41;;;7.42;97.03
21273;BME280;36726;52.328;10.552;2023-04-08T00:18:44;101197.78;;;7.34;96.59
21273;BME280;36726;52.328;10.552;2023-04-08T00:21:10;101197.69;;;7.33;95.88
21273;BME280;36726;52.328;10.552;2023-04-08T00:23:38;101207.41;;;7.34;96.59
21273;BME280;36726;52.328;10.552;2023-04-08T00:26:05;101207.34;;;7.32;96.67
21273;BME280;36726;52.328;10.552;2023-04-08T00:28:31;101204.59;;;7.29;96.53
21273;BME280;36726;52.328;10.552;2023-04-08T00:30:58;101205.38;;;7.27;96.68
21273;BME280;36726;52.328;10.552;2023-04-08T00:33:24;101204.50;;;7.26;96.62
21273;BME280;36726;52.328;10.552;2023-04-08T00:35:51;101199.19;;;7.25;96.87
21273;BME280;36726;52.328;10.552;2023-04-08T00:38:18;101213.22;;;7.25;96.99
21273;BME280;36726;52.328;10.552;2023-04-08T00:40:44;101209.66;;;7.23;97.37
21273;BME280;36726;52.328;10.552;2023-04-08T00:43:11;101218.50;;;7.25;97.34
21273;BME280;36726;52.328;10.552;2023-04-08T00:45:38;101207.84;;;7.22;96.74
21273;BME280;36726;52.328;10.552;2023-04-08T00:48:04;101212.22;;;7.22;97.10
21273;BME280;36726;52.328;10.552;2023-04-08T00:50:31;101206.97;;;7.22;96.73
21273;BME280;36726;52.328;10.552;2023-04-08T00:52:57;101194.69;;;7.22;97.46
21273;BME280;36726;52.328;10.552;2023-04-08T00:55:24;101190.28;;;7.21;97.27
21273;BME280;36726;52.328;10.552;2023-04-08T00:57:50;101179.66;;;7.18;97.77
21273;BME280;36726;52.328;10.552;2023-04-08T01:00:17;101173.34;;;7.15;97.76
21273;BME280;36726;52.328;10.552;2023-04-08T01:02:56;101177.63;;;7.11;97.74
21273;BME280;36726;52.328;10.552;2023-04-08T01:08:10;101180.88;;;7.04;97.59
21273;BME280;36726;52.328;10.552;2023-04-08T01:10:39;101175.59;;;7.04;98.11
21273;BME280;36726;52.328;10.552;2023-04-08T01:13:09;101180.00;;;7.04;98.27
21273;BME280;36726;52.328;10.552;2023-04-08T01:15:38;101179.00;;;7.00;98.39
21273;BME280;36726;52.328;10.552;2023-04-08T01:18:09;101180.66;;;6.98;97.86
21273;BME280;36726;52.328;10.552;2023-04-08T01:20:40;101186.94;;;7.02;99.22
21273;BME280;36726;52.328;10.552;2023-04-08T01:23:24;101191.34;;;7.03;98.92
21273;BME280;36726;52.328;10.552;2023-04-08T01:25:56;101191.34;;;7.03;97.92
21273;BME280;36726;52.328;10.552;2023-04-08T01:28:27;101185.31;;;7.05;99.16
21273;BME280;36726;52.328;10.552;2023-04-08T01:30:57;101177.28;;;7.02;98.51
21273;BME280;36726;52.328;10.552;2023-04-08T01:33:26;101181.63;;;7.00;98.80
21273;BME280;36726;52.328;10.552;2023-04-08T01:35:55;101187.69;;;6.99;98.90
21273;BME280;36726;52.328;10.552;2023-04-08T01:38:23;101179.91;;;7.02;98.83
21273;BME280;36726;52.328;10.552;2023-04-08T01:40:52;101183.53;;;7.06;98.66
21273;BME280;36726;52.328;10.552;2023-04-08T01:43:21;101190.72;;;7.10;99.04
21273;BME280;36726;52.328;10.552;2023-04-08T01:45:48;101184.59;;;7.09;98.55
21273;BME280;36726;52.328;10.552;2023-04-08T01:48:15;101182.88;;;7.11;98.50
21273;BME280;36726;52.328;10.552;2023-04-08T01:50:42;101187.38;;;7.14;98.09
21273;BME280;36726;52.328;10.552;2023-04-08T01:53:11;101187.41;;;7.15;98.58
21273;BME280;36726;52.328;10.552;2023-04-08T01:55:39;101182.16;;;7.15;98.70
21273;BME280;36726;52.328;10.552;2023-04-08T01:58:10;101183.97;;;7.16;98.75
21273;BME280;36726;52.328;10.552;2023-04-08T02:00:39;101186.66;;;7.18;98.40
21273;BME280;36726;52.328;10.552;2023-04-08T02:03:07;101179.66;;;7.18;99.09
21273;BME280;36726;52.328;10.552;2023-04-08T02:05:38;101186.69;;;7.19;99.85
21273;BME280;36726;52.328;10.552;2023-04-08T02:08:05;101189.13;;;7.15;100.00
21273;BME280;36726;52.328;10.552;2023-04-08T02:10:32;101184.69;;;7.12;99.74
21273;BME280;36726;52.328;10.552;2023-04-08T02:12:58;101190.84;;;7.13;100.00
21273;BME280;36726;52.328;10.552;2023-04-08T02:15:27;101189.94;;;7.12;100.00
21273;BME280;36726;52.328;10.552;2023-04-08T02:17:59;101190.75;;;7.11;99.94
21273;BME280;36726;52.328;10.552;2023-04-08T02:20:42;101202.13;;;7.10;100.00
21273;BME280;36726;52.328;10.552;2023-04-08T02:23:13;101189.84;;;7.09;100.00
21273;BME280;36726;52.328;10.552;2023-04-08T02:25:43;101196.84;;;7.09;100.00
21273;BME280;36726;52.328;10.552;2023-04-08T02:28:11;101194.19;;;7.09;100.00
21273;BME280;36726;52.328;10.552;2023-04-08T02:30:47;101200.41;;;7.11;100.00
21273;BME280;36726;52.328;10.552;2023-04-08T02:33:14;101196.84;;;7.09;100.00
21273;BME280;36726;52.328;10.552;2023-04-08T02:35:43;101198.66;;;7.11;100.00
21273;BME280;36726;52.328;10.552;2023-04-08T02:38:10;101208.31;;;7.11;100.00
21273;BME280;36726;52.328;10.552;2023-04-08T02:40:37;101203.00;;;7.09;99.84
21273;BME280;36726;52.328;10.552;2023-04-08T02:43:03;101206.44;;;7.08;100.00
21273;BME280;36726;52.328;10.552;2023-04-08T02:45:31;101211.72;;;7.08;100.00
21273;BME280;36726;52.328;10.552;2023-04-08T02:47:59;101208.06;;;7.05;100.00
21273;BME280;36726;52.328;10.552;2023-04-08T02:50:26;101210.66;;;7.03;100.00
21273;BME280;36726;52.328;10.552;2023-04-08T02:52:53;101208.94;;;7.04;100.00
21273;BME280;36726;52.328;10.552;2023-04-08T02:55:19;101213.34;;;7.05;100.00
21273;BME280;36726;52.328;10.552;2023-04-08T02:57:47;101213.34;;;7.05;100.00
21273;BME280;36726;52.328;10.552;2023-04-08T03:00:14;101216.88;;;7.05;100.00
21273;BME280;36726;52.328;10.552;2023-04-08T03:02:41;101215.06;;;7.04;100.00
21273;BME280;36726;52.328;10.552;2023-04-08T03:05:09;101214.09;;;7.02;100.00
21273;BME280;36726;52.328;10.552;2023-04-08T03:07:35;101209.50;;;6.97;100.00
21273;BME280;36726;52.328;10.552;2023-04-08T03:10:02;101214.72;;;6.95;100.00
21273;BME280;36726;52.328;10.552;2023-04-08T03:12:29;101202.41;;;6.94;100.00
21273;BME280;36726;52.328;10.552;2023-04-08T03:14:56;101211.97;;;6.92;100.00
21273;BME280;36726;52.328;10.552;2023-04-08T03:17:23;101215.47;;;6.91;100.00
21273;BME280;36726;52.328;10.552;2023-04-08T03:19:49;101226.00;;;6.91;100.00
21273;BME280;36726;52.328;10.552;2023-04-08T03:22:16;101222.44;;;6.91;100.00
21273;BME280;36726;52.328;10.552;2023-04-08T03:24:42;101218.88;;;6.89;100.00
21273;BME280;36726;52.328;10.552;2023-04-08T03:27:09;101222.41;;;6.89;100.00
21273;BME280;36726;52.328;10.552;2023-04-08T03:29:37;101218.91;;;6.90;100.00
21273;BME280;36726;52.328;10.552;2023-04-08T03:32:04;101218.16;;;6.93;100.00
21273;BME280;36726;52.328;10.552;2023-04-08T03:34:33;101212.84;;;6.91;100.00
21273;BME280;36726;52.328;10.552;2023-04-08T03:37:00;101218.97;;;6.92;100.00
21273;BME280;36726;52.328;10.552;2023-04-08T03:39:27;101220.72;;;6.91;100.00
21273;BME280;36726;52.328;10.552;2023-04-08T03:41:53;101225.09;;;6.91;100.00
21273;BME280;36726;52.328;10.552;2023-04-08T03:44:20;101223.41;;;6.93;100.00
21273;BME280;36726;52.328;10.552;2023-04-08T03:46:46;101220.84;;;6.94;100.00
21273;BME280;36726;52.328;10.552;2023-04-08T03:49:13;101224.28;;;6.93;100.00
21273;BME280;36726;52.328;10.552;2023-04-08T03:51:39;101215.47;;;6.91;100.00
21273;BME280;36726;52.328;10.552;2023-04-08T03:54:06;101222.50;;;6.92;100.00
21273;BME280;36726;52.328;10.552;2023-04-08T03:56:33;101215.53;;;6.93;100.00
21273;BME280;36726;52.328;10.552;2023-04-08T03:58:59;101221.59;;;6.92;100.00
21273;BME280;36726;52.328;10.552;2023-04-08T04:01:26;101220.59;;;6.88;100.00
21273;BME280;36726;52.328;10.552;2023-04-08T04:03:52;101226.81;;;6.90;100.00
21273;BME280;36726;52.328;10.552;2023-04-08T04:06:19;101230.41;;;6.92;100.00
21273;BME280;36726;52.328;10.552;2023-04-08T04:08:46;101227.75;;;6.92;100.00
21273;BME280;36726;52.328;10.552;2023-04-08T04:11:13;101235.75;;;6.95;100.00
21273;BME280;36726;52.328;10.552;2023-04-08T04:13:39;101231.34;;;6.94;100.00
21273;BME280;36726;52.328;10.552;2023-04-08T04:16:06;101244.44;;;6.93;100.00
21273;BME280;36726;52.328;10.552;2023-04-08T04:18:33;101244.50;;;6.94;100.00
21273;BME280;36726;52.328;10.552;2023-04-08T04:20:59;101247.13;;;6.94;100.00
21273;BME280;36726;52.328;10.552;2023-04-08T04:23:26;101240.00;;;6.92;100.00
21273;BME280;36726;52.328;10.552;2023-04-08T04:25:52;101247.91;;;6.92;100.00
21273;BME280;36726;52.328;10.552;2023-04-08T04:28:19;101256.63;;;6.91;100.00
21273;BME280;36726;52.328;10.552;2023-04-08T04:30:45;101257.59;;;6.93;100.00
21273;BME280;36726;52.328;10.552;2023-04-08T04:33:12;101262.81;;;6.91;100.00
21273;BME280;36726;52.328;10.552;2023-04-08T04:35:39;101259.22;;;6.89;100.00
21273;BME280;36726;52.328;10.552;2023-04-08T04:38:07;101265.28;;;6.88;100.00
21273;BME280;36726;52.328;10.552;2023-04-08T04:40:38;101265.25;;;6.87;100.00
21273;BME280;36726;52.328;10.552;2023-04-08T04:43:04;101269.59;;;6.86;100.00
21273;BME280;36726;52.328;10.552;2023-04-08T04:45:31;101275.75;;;6.87;100.00
21273;BME280;36726;52.328;10.552;2023-04-08T04:47:57;101277.53;;;6.88;100.00
21273;BME280;36726;52.328;10.552;2023-04-08T04:50:24;101275.88;;;6.90;100.00
21273;BME280;36726;52.328;10.552;2023-04-08T04:52:51;101283.75;;;6.90;100.00
21273;BME280;36726;52.328;10.552;2023-04-08T04:55:17;101283.69;;;6.88;100.00
21273;BME280;36726;52.328;10.552;2023-04-08T04:57:44;101281.97;;;6.89;100.00
21273;BME280;36726;52.328;10.552;2023-04-08T05:00:11;101288.16;;;6.89;100.00
21273;BME280;36726;52.328;10.552;2023-04-08T05:02:37;101286.47;;;6.91;100.00
21273;BME280;36726;52.328;10.552;2023-04-08T05:05:05;101281.25;;;6.93;100.00
21273;BME280;36726;52.328;10.552;2023-04-08T05:07:36;101293.56;;;6.94;100.00
21273;BME280;36726;52.328;10.552;2023-04-08T05:10:03;101288.25;;;6.92;100.00
21273;BME280;36726;52.328;10.552;2023-04-08T05:12:30;101284.72;;;6.92;100.00
21273;BME280;36726;52.328;10.552;2023-04-08T05:14:57;101290.03;;;6.93;100.00
21273;BME280;36726;52.328;10.552;2023-04-08T05:17:27;101295.44;;;6.96;100.00
21273;BME280;36726;52.328;10.552;2023-04-08T05:19:53;101296.38;;;6.98;100.00
21273;BME280;36726;52.328;10.552;2023-04-08T05:22:20;101290.28;;;6.99;100.00
21273;BME280;36726;52.328;10.552;2023-04-08T05:24:47;101294.63;;;6.99;100.00
21273;BME280;36726;52.328;10.552;2023-04-08T05:27:14;101292.91;;;6.99;100.00
21273;BME280;36726;52.328;10.552;2023-04-08T05:29:40;101291.22;;;7.01;100.00
21273;BME280;36726;52.328;10.552;2023-04-08T05:32:07;101298.41;;;7.05;100.00
21273;BME280;36726;52.328;10.552;2023-04-08T05:34:34;101303.66;;;7.05;100.00
21273;BME280;36726;52.328;10.552;2023-04-08T05:37:00;101295.88;;;7.08;100.00
21273;BME280;36726;52.328;10.552;2023-04-08T05:39:27;101295.19;;;7.12;100.00
21273;BME280;36726;52.328;10.552;2023-04-08T05:41:54;101307.38;;;7.10;100.00
21273;BME280;36726;52.328;10.552;2023-04-08T05:44:20;101303.88;;;7.11;100.00
21273;BME280;36726;52.328;10.552;2023-04-08T05:46:47;101310.09;;;7.13;100.00
21273;BME280;36726;52.328;10.552;2023-04-08T05:49:13;101308.47;;;7.17;100.00
21273;BME280;36726;52.328;10.552;2023-04-08T05:51:41;101311.31;;;7.21;100.00
21273;BME280;36726;52.328;10.552;2023-04-08T05:54:07;101323.59;;;7.22;100.00
21273;BME280;36726;52.328;10.552;2023-04-08T05:56:34;101314.75;;;7.20;100.00
21273;BME280;36726;52.328;10.552;2023-04-08T05:59:01;101320.88;;;7.19;100.00
21273;BME280;36726;52.328;10.552;2023-04-08T06:01:27;101325.19;;;7.17;100.00
21273;BME280;36726;52.328;10.552;2023-04-08T06:03:54;101319.91;;;7.17;100.00
21273;BME280;36726;52.328;10.552;2023-04-08T06:06:23;101332.09;;;7.15;100.00
21273;BME280;36726;52.328;10.552;2023-04-08T06:08:50;101325.84;;;7.12;100.00
21273;BME280;36726;52.328;10.552;2023-04-08T06:11:17;101329.19;;;7.08;100.00
21273;BME280;36726;52.328;10.552;2023-04-08T06:13:44;101331.66;;;7.03;100.00
21273;BME280;36726;52.328;10.552;2023-04-08T06:16:15;101330.78;;;7.04;100.00
21273;BME280;36726;52.328;10.552;2023-04-08T06:18:46;101344.91;;;7.06;100.00
21273;BME280;36726;52.328;10.552;2023-04-08T06:21:13;101344.19;;;7.10;100.00
21273;BME280;36726;52.328;10.552;2023-04-08T06:23:40;101343.44;;;7.13;100.00
21273;BME280;36726;52.328;10.552;2023-04-08T06:26:06;101337.38;;;7.15;100.00
21273;BME280;36726;52.328;10.552;2023-04-08T06:28:33;101348.03;;;7.18;100.00
21273;BME280;36726;52.328;10.552;2023-04-08T06:31:00;101362.13;;;7.20;100.00
21273;BME280;36726;52.328;10.552;2023-04-08T06:33:26;101355.97;;;7.20;100.00
21273;BME280;36726;52.328;10.552;2023-04-08T06:36:08;101353.41;;;7.21;100.00
21273;BME280;36726;52.328;10.552;2023-04-08T06:38:35;101356.09;;;7.23;100.00
21273;BME280;36726;52.328;10.552;2023-04-08T06:41:02;101352.75;;;7.27;100.00
21273;BME280;36726;52.328;10.552;2023-04-08T06:43:30;101359.94;;;7.31;100.00
21273;BME280;36726;52.328;10.552;2023-04-08T06:45:56;101364.38;;;7.33;100.00
21273;BME280;36726;52.328;10.552;2023-04-08T06:48:24;101368.75;;;7.33;100.00
21273;BME280;36726;52.328;10.552;2023-04-08T06:50:56;101374.00;;;7.33;100.00
21273;BME280;36726;52.328;10.552;2023-04-08T06:53:26;101374.00;;;7.33;100.00
21273;BME280;36726;52.328;10.552;2023-04-08T06:55:54;101373.13;;;7.32;100.00
21273;BME280;36726;52.328;10.552;2023-04-08T06:58:21;101375.81;;;7.34;100.00
21273;BME280;36726;52.328;10.552;2023-04-08T07:00:47;101380.44;;;7.40;100.00
21273;BME280;36726;52.328;10.552;2023-04-08T07:03:14;101384.13;;;7.45;100.00
21273;BME280;36726;52.328;10.552;2023-04-08T07:05:41;101379.88;;;7.48;100.00
21273;BME280;36726;52.328;10.552;2023-04-08T07:08:08;101385.25;;;7.51;100.00
21273;BME280;36726;52.328;10.552;2023-04-08T07:10:34;101381.84;;;7.54;100.00
21273;BME280;36726;52.328;10.552;2023-04-08T07:13:01;101377.53;;;7.56;100.00
21273;BME280;36726;52.328;10.552;2023-04-08T07:15:28;101378.59;;;7.61;100.00
21273;BME280;36726;52.328;10.552;2023-04-08T07:17:55;101377.78;;;7.62;100.00
21273;BME280;36726;52.328;10.552;2023-04-08T07:20:22;101372.72;;;7.68;100.00
21273;BME280;36726;52.328;10.552;2023-04-08T07:22:49;101380.00;;;7.75;100.00
21273;BME280;36726;52.328;10.552;2023-04-08T07:25:15;101381.91;;;7.79;100.00
21273;BME280;36726;52.328;10.552;2023-04-08T07:27:42;101375.06;;;7.84;100.00
21273;BME280;36726;52.328;10.552;2023-04-08T07:30:09;101388.41;;;7.88;100.00
21273;BME280;36726;52.328;10.552;2023-04-08T07:32:36;101387.50;;;7.88;100.00
21273;BME280;36726;52.328;10.552;2023-04-08T07:35:02;101395.41;;;7.88;100.00
21273;BME280;36726;52.328;10.552;2023-04-08T07:37:29;101396.31;;;7.88;100.00
21273;BME280;36726;52.328;10.552;2023-04-08T07:39:55;101417.38;;;7.88;100.00
21273;BME280;36726;52.328;10.552;2023-04-08T07:42:22;101397.03;;;7.84;100.00
21273;BME280;36726;52.328;10.552;2023-04-08T07:44:48;101409.53;;;7.90;100.00
21273;BME280;36726;52.328;10.552;2023-04-08T07:47:15;101404.31;;;7.91;99.53
21273;BME280;36726;52.328;10.552;2023-04-08T07:49:41;101387.91;;;7.98;99.33
21273;BME280;36726;52.328;10.552;2023-04-08T07:52:08;101398.81;;;8.09;99.13
21273;BME280;36726;52.328;10.552;2023-04-08T07:54:35;101404.41;;;8.18;98.91
21273;BME280;36726;52.328;10.552;2023-04-08T07:57:01;101403.69;;;8.22;98.24
21273;BME280;36726;52.328;10.552;2023-04-08T07:59:28;101411.03;;;8.30;97.89
21273;BME280;36726;52.328;10.552;2023-04-08T08:01:54;101417.44;;;8.37;97.04
21273;BME280;36726;52.328;10.552;2023-04-08T08:04:21;101405.41;;;8.45;96.79
21273;BME280;36726;52.328;10.552;2023-04-08T08:06:51;101408.91;;;8.44;97.07
21273;BME280;36726;52.328;10.552;2023-04-08T08:09:17;101413.28;;;8.44;96.49
21273;BME280;36726;52.328;10.552;2023-04-08T08:11:44;101426.31;;;8.39;97.05
21273;BME280;36726;52.328;10.552;2023-04-08T08:14:11;101424.50;;;8.38;97.17
21273;BME280;36726;52.328;10.552;2023-04-08T08:16:39;101419.28;;;8.39;97.25
21273;BME280;36726;52.328;10.552;2023-04-08T08:19:06;101432.41;;;8.38;96.46
21273;BME280;36726;52.328;10.552;2023-04-08T08:21:36;101432.34;;;8.36;96.83
21273;BME280;36726;52.328;10.552;2023-04-08T08:24:04;101436.84;;;8.39;96.79
21273;BME280;36726;52.328;10.552;2023-04-08T08:26:34;101437.84;;;8.43;96.33
21273;BME280;36726;52.328;10.552;2023-04-08T08:29:02;101435.31;;;8.46;96.64
21273;BME280;36726;52.328;10.552;2023-04-08T08:31:29;101442.31;;;8.45;95.98
21273;BME280;36726;52.328;10.552;2023-04-08T08:33:56;101449.41;;;8.46;95.77
21273;BME280;36726;52.328;10.552;2023-04-08T08:36:23;101442.50;;;8.50;96.13
21273;BME280;36726;52.328;10.552;2023-04-08T08:38:49;101447.91;;;8.54;96.10
21273;BME280;36726;52.328;10.552;2023-04-08T08:41:19;101458.69;;;8.60;95.48
21273;BME280;36726;52.328;10.552;2023-04-08T08:43:46;101455.31;;;8.64;95.27
21273;BME280;36726;52.328;10.552;2023-04-08T08:46:15;101454.72;;;8.73;95.39
21273;BME280;36726;52.328;10.552;2023-04-08T08:48:43;101455.69;;;8.75;94.96
21273;BME280;36726;52.328;10.552;2023-04-08T08:51:10;101452.31;;;8.79;93.98
21273;BME280;36726;52.328;10.552;2023-04-08T08:53:37;101458.47;;;8.79;94.10
21273;BME280;36726;52.328;10.552;2023-04-08T08:56:07;101448.75;;;8.78;94.03
21273;BME280;36726;52.328;10.552;2023-04-08T08:58:37;101454.03;;;8.78;94.05
21273;BME280;36726;52.328;10.552;2023-04-08T09:04:14;101454.31;;;8.86;94.33
21273;BME280;36726;52.328;10.552;2023-04-08T09:06:44;101453.56;;;8.90;94.46
21273;BME280;36726;52.328;10.552;2023-04-08T09:09:12;101458.03;;;8.92;93.65
21273;BME280;36726;52.328;10.552;2023-04-08T09:11:41;101464.47;;;9.00;93.86
21273;BME280;36726;52.328;10.552;2023-04-08T09:14:36;101466.50;;;9.09;93.59
21273;BME280;36726;52.328;10.552;2023-04-08T09:17:03;101476.16;;;9.08;92.92
21273;BME280;36726;52.328;10.552;2023-04-08T09:19:29;101482.34;;;9.09;92.72
21273;BME280;36726;52.328;10.552;2023-04-08T09:22:07;101482.25;;;9.06;92.83
21273;BME280;36726;52.328;10.552;2023-04-08T09:24:34;101491.00;;;9.05;93.26
21273;BME280;36726;52.328;10.552;2023-04-08T09:27:03;101483.78;;;8.99;93.33
21273;BME280;36726;52.328;10.552;2023-04-08T09:29:30;101496.97;;;8.99;93.02
21273;BME280;36726;52.328;10.552;2023-04-08T09:32:01;101494.28;;;8.98;92.95
21273;BME280;36726;52.328;10.552;2023-04-08T09:34:29;101496.97;;;8.99;93.22
21273;BME280;36726;52.328;10.552;2023-04-08T09:36:57;101490.75;;;8.97;93.18
21273;BME280;36726;52.328;10.552;2023-04-08T09:39:24;101495.94;;;8.94;94.42
21273;BME280;36726;52.328;10.552;2023-04-08T09:41:51;101501.94;;;8.90;94.20
21273;BME280;36726;52.328;10.552;2023-04-08T09:44:19;101506.34;;;8.90;94.57
21273;BME280;36726;52.328;10.552;2023-04-08T09:49:25;101501.84;;;8.87;94.05
21273;BME280;36726;52.328;10.552;2023-04-08T09:52:01;101498.19;;;8.84;94.50
21273;BME280;36726;52.328;10.552;2023-04-08T09:55:05;101502.47;;;8.80;95.00
21273;BME280;36726;52.328;10.552;2023-04-08T09:57:43;101497.16;;;8.79;95.36
21273;BME280;36726;52.328;10.552;2023-04-08T10:00:13;101500.53;;;8.75;95.42
21273;BME280;36726;52.328;10.552;2023-04-08T10:02:48;101502.22;;;8.73;94.94
21273;BME280;36726;52.328;10.552;2023-04-08T10:05:19;101503.06;;;8.72;95.29
21273;BME280;36726;52.328;10.552;2023-04-08T10:07:47;101509.16;;;8.71;95.85
21273;BME280;36726;52.328;10.552;2023-04-08T10:10:16;101505.63;;;8.70;95.23
21273;BME280;36726;52.328;10.552;2023-04-08T10:12:43;101502.06;;;8.68;95.93
21273;BME280;36726;52.328;10.552;2023-04-08T10:15:32;101507.34;;;8.68;95.33
21273;BME280;36726;52.328;10.552;2023-04-08T10:23:09;101528.53;;;8.71;96.00
21273;BME280;36726;52.328;10.552;2023-04-08T10:25:43;101534.53;;;8.67;96.13
21273;BME280;36726;52.328;10.552;2023-04-08T10:30:42;101529.84;;;8.59;96.64
21273;BME280;36726;52.328;10.552;2023-04-08T10:33:15;101533.47;;;8.62;97.21
21273;BME280;36726;52.328;10.552;2023-04-08T10:35:51;101528.25;;;8.64;96.94
21273;BME280;36726;52.328;10.552;2023-04-08T10:38:19;101526.53;;;8.64;97.19
21273;BME280;36726;52.328;10.552;2023-04-08T10:40:47;101525.66;;;8.65;97.23
21273;BME280;36726;52.328;10.552;2023-04-08T10:43:14;101525.72;;;8.67;97.26
21273;BME280;36726;52.328;10.552;2023-04-08T10:45:42;101531.44;;;8.79;98.07
21273;BME280;36726;52.328;10.552;2023-04-08T10:48:21;101530.63;;;8.81;98.13
21273;BME280;36726;52.328;10.552;2023-04-08T10:50:51;101526.44;;;8.86;97.81
21273;BME280;36726;52.328;10.552;2023-04-08T10:53:30;101529.44;;;8.97;98.00
21273;BME280;36726;52.328;10.552;2023-04-08T10:56:04;101532.97;;;8.97;98.38
21273;BME280;36726;52.328;10.552;2023-04-08T10:58:32;101528.53;;;8.96;98.39
21273;BME280;36726;52.328;10.552;2023-04-08T11:01:06;101522.34;;;8.96;98.17
21273;BME280;36726;52.328;10.552;2023-04-08T11:03:34;101532.03;;;8.95;97.85
21273;BME280;36726;52.328;10.552;2023-04-08T11:06:02;101530.28;;;8.96;97.90
21273;BME280;36726;52.328;10.552;2023-04-08T11:08:32;101534.72;;;8.97;98.58
21273;BME280;36726;52.328;10.552;2023-04-08T11:11:00;101538.22;;;8.97;98.13
21273;BME280;36726;52.328;10.552;2023-04-08T11:13:27;101539.97;;;8.95;98.19
21273;BME280;36726;52.328;10.552;2023-04-08T11:15:55;101535.59;;;8.97;98.24
21273;BME280;36726;52.328;10.552;2023-04-08T11:18:23;101535.59;;;8.97;97.37
21273;BME280;36726;52.328;10.552;2023-04-08T11:20:51;101535.00;;;9.04;96.75
21273;BME280;36726;52.328;10.552;2023-04-08T11:23:18;101532.66;;;9.13;97.00
21273;BME280;36726;52.328;10.552;2023-04-08T11:25:45;101545.28;;;9.22;96.70
21273;BME280;36726;52.328;10.552;2023-04-08T11:28:13;101535.53;;;9.21;95.93
21273;BME280;36726;52.328;10.552;2023-04-08T11:30:40;101541.72;;;9.21;95.76
21273;BME280;36726;52.328;10.552;2023-04-08T11:33:08;101539.94;;;9.20;95.59
21273;BME280;36726;52.328;10.552;2023-04-08T11:35:42;101543.47;;;9.21;94.78
21273;BME280;36726;52.328;10.552;2023-04-08T11:38:10;101539.03;;;9.20;95.07
21273;BME280;36726;52.328;10.552;2023-04-08T11:40:37;101529.38;;;9.20;95.41
21273;BME280;36726;52.328;10.552;2023-04-08T11:43:11;101533.25;;;9.31;94.87
21273;BME280;36726;52.328;10.552;2023-04-08T11:45:39;101526.56;;;9.42;94.45
21273;BME280;36726;52.328;10.552;2023-04-08T11:48:14;101527.09;;;9.58;93.76
21273;BME280;36726;52.328;10.552;2023-04-08T11:50:42;101522.28;;;9.73;94.22
21273;BME280;36726;52.328;10.552;2023-04-08T11:53:24;101520.97;;;9.87;91.85
21273;BME280;36726;52.328;10.552;2023-04-08T11:55:51;101526.63;;;9.99;91.29
21273;BME280;36726;52.328;10.552;2023-04-08T11:58:17;101520.94;;;10.13;90.86
21273;BME280;36726;52.328;10.552;2023-04-08T12:00:44;101526.78;;;10.33;90.99
21273;BME280;36726;52.328;10.552;2023-04-08T12:03:14;101526.31;;;10.46;90.28
21273;BME280;36726;52.328;10.552;2023-04-08T12:05:41;101526.31;;;10.46;89.18
21273;BME280;36726;52.328;10.552;2023-04-08T12:08:08;101528.91;;;10.44;88.64
21273;BME280;36726;52.328;10.552;2023-04-08T12:10:34;101537.81;;;10.48;87.19
21273;BME280;36726;52.328;10.552;2023-04-08T12:13:01;101537.06;;;10.52;87.09
21273;BME280;36726;52.328;10.552;2023-04-08T12:15:28;101539.56;;;10.48;87.02
21273;BME280;36726;52.328;10.552;2023-04-08T12:17:54;101550.06;;;10.44;87.15
21273;BME280;36726;52.328;10.552;2023-04-08T12:20:21;101543.84;;;10.42;87.13
21273;BME280;36726;52.328;10.552;2023-04-08T12:22:48;101548.19;;;10.40;86.72
21273;BME280;36726;52.328;10.552;2023-04-08T12:25:14;101553.47;;;10.40;87.09
21273;BME280;36726;52.328;10.552;2023-04-08T12:27:41;101541.09;;;10.39;87.06
21273;BME280;36726;52.328;10.552;2023-04-08T12:30:09;101545.50;;;10.39;86.76
21273;BME280;36726;52.328;10.552;2023-04-08T12:32:35;101543.88;;;10.44;87.23
21273;BME280;36726;52.328;10.552;2023-04-08T12:35:02;101553.50;;;10.42;86.07
21273;BME280;36726;52.328;10.552;2023-04-08T12:37:29;101545.69;;;10.45;86.84
21273;BME280;36726;52.328;10.552;2023-04-08T12:39:56;101545.13;;;10.57;86.20
21273;BME280;36726;52.328;10.552;2023-04-08T12:42:23;101544.38;;;10.62;85.85
21273;BME280;36726;52.328;10.552;2023-04-08T12:44:50;101547.91;;;10.61;86.28
21273;BME280;36726;52.328;10.552;2023-04-08T12:47:16;101548.06;;;10.67;86.18
21273;BME280;36726;52.328;10.552;2023-04-08T12:49:43;101545.28;;;10.63;86.17
21273;BME280;36726;52.328;10.552;2023-04-08T12:52:15;101544.31;;;10.59;85.64
21273;BME280;36726;52.328;10.552;2023-04-08T12:54:42;101540.91;;;10.63;85.51
21273;BME280;36726;52.328;10.552;2023-04-08T12:57:09;101534.06;;;10.71;85.84
21273;BME280;36726;52.328;10.552;2023-04-08T12:59:36;101537.91;;;10.82;84.72
21273;BME280;36726;52.328;10.552;2023-04-08T13:02:03;101534.59;;;10.91;84.55
21273;BME280;36726;52.328;10.552;2023-04-08T13:04:30;101540.09;;;10.98;84.73
21273;BME280;36726;52.328;10.552;2023-04-08T13:06:57;101538.59;;;11.08;85.01